createdAt,value
2022-10-07T00:01:06.565Z,99.90
2022-10-07T00:03:35.300Z,99.90
2022-10-07T00:06:08.643Z,99.90
2022-10-07T00:08:38.023Z,99.90
2022-10-07T00:11:10.042Z,99.90
2022-10-07T00:13:40.524Z,99.90
2022-10-07T00:16:11.025Z,99.90
2022-10-07T00:18:40.654Z,99.90
2022-10-07T00:21:11.868Z,99.90
2022-10-07T00:23:41.985Z,99.90
2022-10-07T00:26:13.187Z,99.90
2022-10-07T00:28:41.517Z,99.90
2022-10-07T00:31:13.178Z,99.90
2022-10-07T00:33:42.934Z,99.90
2022-10-07T00:36:15.766Z,99.90
2022-10-07T00:38:43.795Z,99.90
2022-10-07T00:41:18.869Z,99.90
2022-10-07T00:43:46.990Z,99.90
2022-10-07T00:46:32.021Z,99.90
2022-10-07T00:49:02.837Z,99.90
2022-10-07T00:51:33.360Z,99.90
2022-10-07T00:54:03.493Z,99.90
2022-10-07T00:56:34.966Z,99.90
2022-10-07T00:59:03.341Z,99.90
2022-10-07T01:01:31.488Z,99.90
2022-10-07T01:03:59.534Z,99.90
2022-10-07T01:06:27.636Z,99.90
2022-10-07T01:08:57.565Z,99.90
2022-10-07T01:11:40.593Z,99.90
2022-10-07T01:14:16.704Z,99.90
2022-10-07T01:16:52.974Z,99.90
2022-10-07T01:19:36.234Z,99.90
2022-10-07T01:22:17.153Z,99.90
2022-10-07T01:24:55.053Z,99.90
2022-10-07T01:27:27.941Z,99.90
2022-10-07T01:30:03.169Z,99.90
2022-10-07T01:32:36.902Z,99.90
2022-10-07T01:35:09.415Z,99.90
2022-10-07T01:37:42.690Z,99.90
2022-10-07T01:40:14.859Z,99.90
2022-10-07T01:42:45.957Z,99.90
2022-10-07T01:45:21.180Z,99.90
2022-10-07T01:47:49.267Z,99.90
2022-10-07T01:50:19.330Z,99.90
2022-10-07T01:53:04.972Z,99.90
2022-10-07T01:56:03.328Z,99.90
2022-10-07T01:58:50.659Z,99.90
2022-10-07T02:01:23.868Z,99.90
2022-10-07T02:04:16.580Z,99.90
2022-10-07T02:06:50.057Z,99.90
2022-10-07T02:09:26.428Z,99.90
2022-10-07T02:12:01.029Z,99.90
2022-10-07T02:14:39.389Z,99.90
2022-10-07T02:17:12.672Z,99.90
2022-10-07T02:19:45.448Z,99.90
2022-10-07T02:22:16.951Z,99.90
2022-10-07T02:24:48.195Z,99.90
2022-10-07T02:27:20.830Z,99.90
2022-10-07T02:29:54.139Z,99.90
2022-10-07T02:32:26.823Z,99.90
2022-10-07T02:35:02.624Z,99.90
2022-10-07T02:37:35.151Z,99.90
2022-10-07T02:40:09.728Z,99.90
2022-10-07T02:42:48.933Z,99.90
2022-10-07T02:45:26.676Z,99.90
2022-10-07T02:47:59.807Z,99.90
2022-10-07T02:50:33.074Z,99.90
2022-10-07T02:53:03.030Z,99.90
2022-10-07T02:55:32.994Z,99.90
2022-10-07T02:58:05.327Z,99.90
2022-10-07T03:00:38.772Z,99.90
2022-10-07T03:03:07.070Z,99.90
2022-10-07T03:05:35.753Z,99.90
2022-10-07T03:08:06.199Z,99.90
2022-10-07T03:10:34.249Z,99.90
2022-10-07T03:13:05.010Z,99.90
2022-10-07T03:15:41.813Z,99.90
2022-10-07T03:18:26.240Z,99.90
2022-10-07T03:20:55.486Z,99.90
2022-10-07T03:23:24.578Z,99.90
2022-10-07T03:25:52.939Z,99.90
2022-10-07T03:28:21.724Z,99.90
2022-10-07T03:30:51.999Z,99.90
2022-10-07T03:33:33.156Z,99.90
2022-10-07T03:36:01.655Z,99.90
2022-10-07T03:38:30.037Z,99.90
2022-10-07T03:40:58.242Z,99.90
2022-10-07T03:43:26.304Z,99.90
2022-10-07T03:45:55.939Z,99.90
2022-10-07T03:48:23.896Z,99.90
2022-10-07T03:50:52.267Z,99.90
2022-10-07T03:53:21.541Z,99.90
2022-10-07T03:55:49.566Z,99.90
2022-10-07T03:58:17.582Z,99.90
2022-10-07T04:00:45.793Z,99.90
2022-10-07T04:03:15.791Z,99.90
2022-10-07T04:05:45.255Z,99.90
2022-10-07T04:08:17.909Z,99.90
2022-10-07T04:10:48.958Z,99.90
2022-10-07T04:13:16.929Z,99.90
2022-10-07T04:15:44.916Z,99.90
2022-10-07T04:18:14.294Z,99.90
2022-10-07T04:20:42.654Z,99.90
2022-10-07T04:23:10.685Z,99.90
2022-10-07T04:25:43.132Z,99.90
2022-10-07T04:28:17.737Z,99.90
2022-10-07T04:30:51.045Z,99.90
2022-10-07T04:33:21.476Z,99.90
2022-10-07T04:35:49.752Z,99.90
2022-10-07T04:38:19.136Z,99.90
2022-10-07T04:40:50.002Z,99.90
2022-10-07T04:43:24.233Z,99.90
2022-10-07T04:45:54.633Z,99.90
2022-10-07T04:48:26.167Z,99.90
2022-10-07T04:50:54.754Z,99.90
2022-10-07T04:53:23.137Z,99.90
2022-10-07T04:55:52.504Z,99.90
2022-10-07T04:58:21.423Z,99.90
2022-10-07T05:00:51.521Z,99.90
2022-10-07T05:03:21.103Z,99.90
2022-10-07T05:05:52.512Z,99.90
2022-10-07T05:08:22.039Z,99.90
2022-10-07T05:10:54.774Z,99.90
2022-10-07T05:13:23.231Z,99.90
2022-10-07T05:15:52.451Z,99.90
2022-10-07T05:18:20.940Z,99.90
2022-10-07T05:20:53.221Z,99.90
2022-10-07T05:23:28.099Z,99.90
2022-10-07T05:26:01.067Z,99.90
2022-10-07T05:28:29.650Z,99.90
2022-10-07T05:31:05.735Z,99.90
2022-10-07T05:33:34.332Z,99.90
2022-10-07T05:36:04.388Z,99.90
2022-10-07T05:38:32.790Z,99.90
2022-10-07T05:41:02.142Z,99.90
2022-10-07T05:43:32.136Z,99.90
2022-10-07T05:46:03.973Z,99.90
2022-10-07T05:48:38.002Z,99.90
2022-10-07T05:51:08.174Z,99.90
2022-10-07T05:53:36.481Z,99.90
2022-10-07T05:56:07.399Z,99.90
2022-10-07T05:58:36.066Z,99.90
2022-10-07T06:01:13.010Z,99.90
2022-10-07T06:03:42.246Z,99.90
2022-10-07T06:06:11.618Z,99.90
2022-10-07T06:08:39.632Z,99.90
2022-10-07T06:11:29.185Z,99.90
2022-10-07T06:13:57.521Z,99.90
2022-10-07T06:16:26.063Z,99.90
2022-10-07T06:18:55.189Z,99.90
2022-10-07T06:21:28.055Z,99.90
2022-10-07T06:23:58.377Z,99.90
2022-10-07T06:26:26.490Z,99.90
2022-10-07T06:28:54.487Z,99.90
2022-10-07T06:31:25.310Z,99.90
2022-10-07T06:33:54.223Z,99.90
2022-10-07T06:36:22.374Z,99.90
2022-10-07T06:38:54.526Z,99.90
2022-10-07T06:41:23.451Z,99.90
2022-10-07T06:43:55.630Z,99.90
2022-10-07T06:46:23.938Z,99.90
2022-10-07T06:48:51.968Z,99.90
2022-10-07T06:51:21.576Z,95.10
2022-10-07T06:53:57.858Z,78.70
2022-10-07T06:56:25.885Z,57.90
2022-10-07T06:58:54.003Z,43.60
2022-10-07T07:01:22.051Z,1.00
2022-10-07T07:03:50.085Z,1.00
2022-10-07T07:06:18.526Z,1.00
2022-10-07T07:08:49.955Z,1.00
2022-10-07T07:11:40.986Z,1.00
2022-10-07T07:14:11.350Z,99.90
2022-10-07T07:16:39.738Z,99.90
2022-10-07T07:19:13.842Z,99.90
2022-10-07T07:21:41.962Z,99.90
2022-10-07T07:24:10.452Z,99.90
2022-10-07T07:26:40.463Z,99.90
2022-10-07T07:29:12.518Z,84.10
2022-10-07T07:31:40.506Z,99.90
2022-10-07T07:34:12.305Z,99.90
2022-10-07T07:36:45.804Z,99.90
2022-10-07T07:39:15.755Z,99.90
2022-10-07T07:41:47.724Z,91.10
2022-10-07T07:44:17.110Z,1.00
2022-10-07T07:46:48.324Z,1.00
2022-10-07T07:49:17.165Z,1.00
2022-10-07T07:51:45.634Z,1.00
2022-10-07T07:54:14.464Z,1.00
2022-10-07T07:56:44.693Z,1.00
2022-10-07T07:59:13.181Z,1.00
2022-10-07T08:01:41.305Z,1.00
2022-10-07T08:04:11.197Z,1.00
2022-10-07T08:06:40.319Z,1.00
2022-10-07T08:09:12.943Z,1.00
2022-10-07T08:11:45.133Z,99.90
2022-10-07T08:14:15.097Z,99.90
2022-10-07T08:16:44.942Z,99.90
2022-10-07T08:19:13.349Z,99.90
2022-10-07T08:21:43.683Z,99.90
2022-10-07T08:24:13.999Z,92.70
2022-10-07T08:26:42.029Z,1.00
2022-10-07T08:29:10.078Z,1.00
2022-10-07T08:31:39.644Z,1.00
2022-10-07T08:34:07.682Z,99.90
2022-10-07T08:36:35.771Z,99.90
2022-10-07T08:39:05.801Z,99.90
2022-10-07T08:41:50.613Z,99.90
2022-10-07T08:44:24.674Z,99.90
2022-10-07T08:46:59.325Z,99.90
2022-10-07T08:49:36.585Z,99.90
2022-10-07T08:52:15.070Z,99.90
2022-10-07T08:54:43.085Z,99.90
2022-10-07T08:57:20.436Z,68.60
2022-10-07T08:59:54.968Z,1.00
2022-10-07T09:02:32.648Z,1.00
2022-10-07T09:05:10.946Z,1.00
2022-10-07T09:07:45.478Z,99.90
2022-10-07T09:10:28.114Z,99.90
2022-10-07T09:13:00.550Z,99.90
2022-10-07T09:15:40.503Z,99.90
2022-10-07T09:18:20.515Z,99.90
2022-10-07T09:20:53.226Z,77.20
2022-10-07T09:23:24.304Z,55.10
2022-10-07T09:25:52.814Z,1.00
2022-10-07T09:28:25.343Z,1.00
2022-10-07T09:30:53.535Z,1.00
2022-10-07T09:33:24.949Z,30.60
2022-10-07T09:35:57.628Z,1.00
2022-10-07T09:38:32.198Z,1.00
2022-10-07T09:41:17.025Z,1.00
2022-10-07T09:43:56.717Z,1.00
2022-10-07T09:46:41.661Z,99.90
2022-10-07T09:49:39.596Z,99.90
2022-10-07T09:52:15.793Z,99.90
2022-10-07T09:54:45.209Z,99.90
2022-10-07T09:57:29.939Z,99.90
2022-10-07T10:00:25.128Z,68.70
2022-10-07T10:02:56.253Z,99.90
2022-10-07T10:05:29.996Z,99.90
2022-10-07T10:08:00.840Z,99.90
2022-10-07T10:10:34.013Z,10.90
2022-10-07T10:13:03.961Z,1.00
2022-10-07T10:15:41.187Z,54.50
2022-10-07T10:18:42.809Z,35.70
2022-10-07T10:21:25.289Z,99.90
2022-10-07T10:23:56.372Z,99.90
2022-10-07T10:26:53.908Z,99.90
2022-10-07T10:29:41.705Z,99.90
2022-10-07T10:32:45.515Z,99.90
2022-10-07T10:35:19.704Z,99.90
2022-10-07T10:38:11.010Z,1.00
2022-10-07T10:40:42.654Z,80.60
2022-10-07T10:43:23.529Z,99.90
2022-10-07T10:46:19.448Z,1.00
2022-10-07T10:48:55.271Z,99.90
2022-10-07T10:51:38.891Z,99.90
2022-10-07T10:54:21.009Z,99.90
2022-10-07T10:56:59.306Z,1.00
2022-10-07T10:59:48.989Z,1.00
2022-10-07T11:02:36.529Z,1.00
2022-10-07T11:05:08.011Z,8.20
2022-10-07T11:07:39.649Z,15.90
2022-10-07T11:10:20.172Z,24.40
2022-10-07T11:12:54.315Z,99.90
2022-10-07T11:15:27.057Z,99.90
2022-10-07T11:17:59.558Z,87.30
2022-10-07T11:20:34.652Z,1.00
2022-10-07T11:23:14.428Z,42.10
2022-10-07T11:25:53.801Z,92.40
2022-10-07T11:28:25.207Z,99.90
2022-10-07T11:31:02.267Z,74.50
2022-10-07T11:33:37.119Z,82.70
2022-10-07T11:36:14.190Z,48.30
2022-10-07T11:38:43.101Z,1.00
2022-10-07T11:41:21.248Z,25.80
2022-10-07T11:43:53.200Z,1.00
2022-10-07T11:46:25.703Z,1.00
2022-10-07T11:49:00.885Z,1.00
2022-10-07T11:51:34.261Z,1.00
2022-10-07T11:54:04.321Z,99.90
2022-10-07T11:56:38.889Z,99.90
2022-10-07T11:59:08.061Z,10.00
2022-10-07T12:01:53.369Z,1.00
2022-10-07T12:04:48.466Z,1.00
2022-10-07T12:07:40.579Z,1.00
2022-10-07T12:10:21.862Z,99.90
2022-10-07T12:12:54.708Z,1.00
2022-10-07T12:15:29.604Z,1.00
2022-10-07T12:18:18.579Z,1.00
2022-10-07T12:20:57.748Z,99.90
2022-10-07T12:23:49.828Z,99.90
2022-10-07T12:26:52.046Z,99.90
2022-10-07T12:30:02.483Z,99.90
2022-10-07T12:33:00.847Z,99.90
2022-10-07T12:35:53.904Z,1.00
2022-10-07T12:38:31.721Z,1.00
2022-10-07T12:41:23.008Z,1.00
2022-10-07T12:43:57.131Z,1.00
2022-10-07T12:46:30.695Z,99.90
2022-10-07T12:49:02.585Z,99.90
2022-10-07T12:51:39.506Z,90.10
2022-10-07T12:54:15.726Z,1.00
2022-10-07T12:56:45.163Z,1.00
2022-10-07T12:59:48.867Z,90.00
2022-10-07T13:03:08.710Z,99.90
2022-10-07T13:06:28.481Z,99.90
2022-10-07T13:09:21.214Z,99.90
2022-10-07T13:12:15.936Z,99.90
2022-10-07T13:14:54.549Z,99.90
2022-10-07T13:17:31.922Z,99.90
2022-10-07T13:20:15.729Z,99.90
2022-10-07T13:22:49.184Z,99.90
2022-10-07T13:25:21.006Z,99.90
2022-10-07T13:27:54.667Z,99.90
2022-10-07T13:30:37.850Z,99.90
2022-10-07T13:33:35.693Z,1.00
2022-10-07T13:36:14.170Z,1.00
2022-10-07T13:38:42.218Z,99.50
2022-10-07T13:41:18.423Z,99.90
2022-10-07T13:43:47.309Z,99.90
2022-10-07T13:46:16.941Z,99.90
2022-10-07T13:48:46.015Z,99.90
2022-10-07T13:51:24.030Z,99.90
2022-10-07T13:53:58.127Z,1.00
2022-10-07T13:56:28.802Z,1.00
2022-10-07T13:58:58.421Z,1.00
2022-10-07T14:01:29.425Z,11.90
2022-10-07T14:04:19.901Z,18.60
2022-10-07T14:06:56.099Z,1.00
2022-10-07T14:09:34.857Z,1.00
2022-10-07T14:12:06.242Z,1.00
2022-10-07T14:14:38.165Z,1.00
2022-10-07T14:17:11.643Z,1.00
2022-10-07T14:19:40.578Z,1.00
2022-10-07T14:22:20.510Z,1.00
2022-10-07T14:24:58.123Z,1.00
2022-10-07T14:27:53.699Z,1.00
2022-10-07T14:30:55.579Z,1.00
2022-10-07T14:33:53.471Z,1.00
2022-10-07T14:36:22.550Z,1.00
2022-10-07T14:38:55.270Z,1.00
2022-10-07T14:41:24.480Z,1.00
2022-10-07T14:43:53.032Z,21.70
2022-10-07T14:46:22.911Z,98.40
2022-10-07T14:48:52.370Z,93.30
2022-10-07T14:51:23.161Z,62.30
2022-10-07T14:53:57.207Z,92.20
2022-10-07T14:56:28.171Z,99.90
2022-10-07T14:58:56.795Z,99.90
2022-10-07T15:01:25.556Z,99.90
2022-10-07T15:03:53.646Z,99.90
2022-10-07T15:06:22.185Z,99.90
2022-10-07T15:08:52.561Z,99.90
2022-10-07T15:11:22.225Z,99.90
2022-10-07T15:13:50.682Z,99.90
2022-10-07T15:16:20.566Z,99.90
2022-10-07T15:18:52.934Z,99.90
2022-10-07T15:21:21.315Z,99.90
2022-10-07T15:23:53.058Z,99.90
2022-10-07T15:26:24.128Z,99.90
2022-10-07T15:28:54.320Z,99.90
2022-10-07T15:31:23.500Z,99.90
2022-10-07T15:33:51.708Z,99.90
2022-10-07T15:36:19.701Z,99.90
2022-10-07T15:38:47.720Z,99.90
2022-10-07T15:41:31.636Z,99.90
2022-10-07T15:44:00.309Z,99.90
2022-10-07T15:46:28.922Z,99.90
2022-10-07T15:48:57.867Z,99.90
2022-10-07T15:51:26.725Z,99.90
2022-10-07T15:53:55.424Z,99.90
2022-10-07T15:56:25.812Z,1.00
2022-10-07T15:58:54.114Z,1.00
2022-10-07T16:01:22.523Z,1.00
2022-10-07T16:03:51.002Z,1.00
2022-10-07T16:06:23.794Z,1.00
2022-10-07T16:08:54.324Z,1.00
2022-10-07T16:11:23.966Z,1.00
2022-10-07T16:13:52.746Z,1.00
2022-10-07T16:16:22.576Z,1.00
2022-10-07T16:18:53.070Z,1.00
2022-10-07T16:21:23.683Z,1.00
2022-10-07T16:23:55.903Z,1.00
2022-10-07T16:26:30.013Z,1.00
2022-10-07T16:29:17.948Z,1.00
2022-10-07T16:31:47.318Z,1.00
2022-10-07T16:34:17.251Z,1.00
2022-10-07T16:36:50.325Z,1.00
2022-10-07T16:39:19.505Z,1.00
2022-10-07T16:41:51.171Z,1.00
2022-10-07T16:44:19.296Z,1.40
2022-10-07T16:46:47.744Z,10.00
2022-10-07T16:49:17.813Z,13.80
2022-10-07T16:51:48.741Z,17.60
2022-10-07T16:54:18.508Z,22.40
2022-10-07T16:56:50.009Z,24.10
2022-10-07T16:59:23.484Z,27.60
2022-10-07T17:01:53.297Z,30.30
2022-10-07T17:04:21.900Z,33.80
2022-10-07T17:06:49.980Z,37.30
2022-10-07T17:09:18.476Z,40.20
2022-10-07T17:11:46.961Z,43.30
2022-10-07T17:14:18.263Z,47.80
2022-10-07T17:16:48.102Z,49.50
2022-10-07T17:19:17.879Z,54.40
2022-10-07T17:21:47.987Z,56.90
2022-10-07T17:24:16.923Z,59.70
2022-10-07T17:26:44.990Z,62.70
2022-10-07T17:29:14.703Z,63.50
2022-10-07T17:31:47.019Z,65.00
2022-10-07T17:34:16.742Z,66.40
2022-10-07T17:36:45.070Z,66.50
2022-10-07T17:39:13.303Z,68.70
2022-10-07T17:41:42.614Z,69.60
2022-10-07T17:44:13.129Z,69.80
2022-10-07T17:46:43.092Z,72.60
2022-10-07T17:49:13.134Z,74.50
2022-10-07T17:51:42.590Z,75.30
2022-10-07T17:54:12.139Z,76.20
2022-10-07T17:56:40.205Z,77.30
2022-10-07T17:59:08.288Z,78.80
2022-10-07T18:01:37.644Z,80.40
2022-10-07T18:04:08.399Z,79.70
2022-10-07T18:06:37.728Z,81.90
2022-10-07T18:09:07.218Z,83.20
2022-10-07T18:11:52.728Z,84.50
2022-10-07T18:14:38.559Z,85.30
2022-10-07T18:17:08.127Z,85.80
2022-10-07T18:19:39.478Z,86.90
2022-10-07T18:22:07.495Z,86.20
2022-10-07T18:24:35.858Z,88.60
2022-10-07T18:27:04.041Z,90.20
2022-10-07T18:29:33.685Z,90.80
2022-10-07T18:32:01.931Z,90.60
2022-10-07T18:34:33.490Z,90.70
2022-10-07T18:37:02.934Z,90.70
2022-10-07T18:39:30.985Z,91.00
2022-10-07T18:41:59.286Z,91.70
2022-10-07T18:44:30.357Z,91.80
2022-10-07T18:46:58.501Z,92.20
2022-10-07T18:49:26.632Z,92.50
2022-10-07T18:51:54.648Z,92.90
2022-10-07T18:54:25.674Z,93.40
2022-10-07T18:56:53.848Z,93.80
2022-10-07T18:59:22.019Z,94.50
2022-10-07T19:01:52.220Z,94.20
2022-10-07T19:04:21.048Z,94.00
2022-10-07T19:06:49.220Z,93.60
2022-10-07T19:09:19.944Z,93.50
2022-10-07T19:11:50.129Z,93.40
2022-10-07T19:14:17.525Z,93.50
2022-10-07T19:16:49.168Z,93.80
2022-10-07T19:19:19.667Z,94.00
2022-10-07T19:21:50.181Z,94.00
2022-10-07T19:24:19.108Z,94.40
2022-10-07T19:26:51.342Z,94.50
2022-10-07T19:29:20.047Z,94.70
2022-10-07T19:31:50.225Z,95.00
2022-10-07T19:34:22.542Z,95.30
2022-10-07T19:36:55.088Z,97.20
2022-10-07T19:39:23.567Z,97.90
2022-10-07T19:41:54.494Z,97.80
2022-10-07T19:44:22.510Z,97.80
2022-10-07T19:46:52.351Z,97.90
2022-10-07T19:49:20.751Z,98.10
2022-10-07T19:51:48.789Z,98.70
2022-10-07T19:54:17.066Z,98.60
2022-10-07T19:56:45.411Z,98.90
2022-10-07T19:59:15.561Z,99.90
2022-10-07T20:01:47.466Z,99.90
2022-10-07T20:04:18.595Z,99.90
2022-10-07T20:06:51.687Z,99.90
2022-10-07T20:09:20.440Z,99.90
2022-10-07T20:11:48.531Z,99.90
2022-10-07T20:14:18.872Z,99.90
2022-10-07T20:16:46.998Z,99.90
2022-10-07T20:19:18.697Z,99.90
2022-10-07T20:21:47.134Z,99.90
2022-10-07T20:24:16.408Z,99.90
2022-10-07T20:26:45.585Z,99.90
2022-10-07T20:29:15.986Z,99.90
2022-10-07T20:31:46.007Z,99.90
2022-10-07T20:34:15.990Z,99.90
2022-10-07T20:36:44.286Z,99.90
2022-10-07T20:39:34.081Z,99.90
2022-10-07T20:42:19.404Z,99.90
2022-10-07T20:44:49.173Z,99.90
2022-10-07T20:47:19.602Z,99.90
2022-10-07T20:49:51.327Z,99.90
2022-10-07T20:52:21.245Z,99.90
2022-10-07T20:54:49.981Z,99.90
2022-10-07T20:57:19.929Z,99.90
2022-10-07T20:59:48.105Z,99.90
2022-10-07T21:02:19.708Z,99.90
2022-10-07T21:04:48.129Z,99.90
2022-10-07T21:07:17.031Z,99.90
2022-10-07T21:09:45.085Z,99.90
2022-10-07T21:12:15.178Z,99.90
2022-10-07T21:14:44.160Z,99.90
2022-10-07T21:17:12.979Z,99.90
2022-10-07T21:19:42.325Z,99.90
2022-10-07T21:22:10.597Z,99.90
2022-10-07T21:24:38.601Z,99.90
2022-10-07T21:27:09.090Z,99.90
2022-10-07T21:29:40.788Z,99.90
2022-10-07T21:32:09.715Z,99.90
2022-10-07T21:34:37.886Z,99.90
2022-10-07T21:37:10.096Z,99.90
2022-10-07T21:39:38.197Z,99.90
2022-10-07T21:42:08.742Z,99.90
2022-10-07T21:44:36.722Z,99.90
2022-10-07T21:47:05.042Z,99.90
2022-10-07T21:49:33.134Z,99.90
2022-10-07T21:52:01.145Z,99.90
2022-10-07T21:54:30.487Z,99.90
2022-10-07T21:56:58.541Z,99.90
2022-10-07T21:59:26.522Z,99.90
2022-10-07T22:01:54.564Z,99.90
2022-10-07T22:04:22.721Z,99.90
2022-10-07T22:07:08.313Z,99.90
2022-10-07T22:09:37.683Z,99.90
2022-10-07T22:12:05.924Z,99.90
2022-10-07T22:14:33.894Z,99.90
2022-10-07T22:17:01.889Z,99.90
2022-10-07T22:19:29.882Z,99.90
2022-10-07T22:21:57.853Z,99.90
2022-10-07T22:24:27.693Z,99.90
2022-10-07T22:26:57.054Z,99.90
2022-10-07T22:29:25.255Z,99.90
2022-10-07T22:31:53.335Z,99.90
2022-10-07T22:34:38.605Z,99.90
2022-10-07T22:37:06.977Z,99.90
2022-10-07T22:39:34.999Z,99.90
2022-10-07T22:42:04.470Z,99.90
2022-10-07T22:44:32.463Z,99.90
2022-10-07T22:47:01.449Z,99.90
2022-10-07T22:49:30.401Z,99.90
2022-10-07T22:51:59.679Z,99.90
2022-10-07T22:54:28.435Z,99.90
2022-10-07T22:56:56.631Z,99.90
2022-10-07T22:59:26.082Z,99.90
2022-10-07T23:01:54.083Z,99.90
2022-10-07T23:04:22.276Z,99.90
2022-10-07T23:06:50.290Z,99.90
2022-10-07T23:09:18.283Z,99.90
2022-10-07T23:11:49.941Z,99.90
2022-10-07T23:14:18.264Z,99.90
2022-10-07T23:16:47.635Z,99.90
2022-10-07T23:19:15.602Z,99.90
2022-10-07T23:21:43.919Z,99.90
2022-10-07T23:24:12.518Z,99.90
2022-10-07T23:26:40.495Z,99.90
2022-10-07T23:29:08.801Z,99.90
2022-10-07T23:31:36.898Z,99.90
2022-10-07T23:34:07.417Z,99.90
2022-10-07T23:36:35.747Z,99.90
2022-10-07T23:39:03.789Z,99.90
2022-10-07T23:41:32.563Z,99.90
2022-10-07T23:44:02.827Z,99.90
2022-10-07T23:46:35.859Z,99.90
2022-10-07T23:49:04.811Z,99.90
2022-10-07T23:51:34.760Z,99.90
2022-10-07T23:54:04.749Z,99.90
2022-10-07T23:56:33.307Z,99.90
2022-10-07T23:59:02.690Z,99.90
